sensor_id;sensor_type;location;lat;lon;timestamp;P1;durP1;ratioP1;P2;durP2;ratioP2
5684;SDS011;2865;53.114;9.130;2023-04-15T00:04:37;10.17;;;7.10;;
5684;SDS011;2865;53.114;9.130;2023-04-15T00:07:03;8.27;;;7.47;;
5684;SDS011;2865;53.114;9.130;2023-04-15T00:09:28;7.67;;;6.87;;
5684;SDS011;2865;53.114;9.130;2023-04-15T00:11:54;9.90;;;7.30;;
5684;SDS011;2865;53.114;9.130;2023-04-15T00:14:19;7.53;;;6.50;;
5684;SDS011;2865;53.114;9.130;2023-04-15T00:16:44;8.57;;;7.50;;
5684;SDS011;2865;53.114;9.130;2023-04-15T00:19:10;9.83;;;8.13;;
5684;SDS011;2865;53.114;9.130;2023-04-15T00:21:35;8.20;;;7.23;;
5684;SDS011;2865;53.114;9.130;2023-04-15T00:24:01;8.80;;;7.90;;
5684;SDS011;2865;53.114;9.130;2023-04-15T00:26:26;7.97;;;7.10;;
5684;SDS011;2865;53.114;9.130;2023-04-15T00:28:52;11.30;;;7.80;;
5684;SDS011;2865;53.114;9.130;2023-04-15T00:31:17;9.33;;;8.33;;
5684;SDS011;2865;53.114;9.130;2023-04-15T00:33:42;10.17;;;8.27;;
5684;SDS011;2865;53.114;9.130;2023-04-15T00:36:08;10.77;;;9.30;;
5684;SDS011;2865;53.114;9.130;2023-04-15T00:38:33;10.80;;;8.37;;
5684;SDS011;2865;53.114;9.130;2023-04-15T00:40:59;11.13;;;9.57;;
5684;SDS011;2865;53.114;9.130;2023-04-15T00:43:25;13.00;;;8.40;;
5684;SDS011;2865;53.114;9.130;2023-04-15T00:45:50;9.30;;;8.40;;
5684;SDS011;2865;53.114;9.130;2023-04-15T00:48:16;8.73;;;7.80;;
5684;SDS011;2865;53.114;9.130;2023-04-15T00:50:41;11.07;;;9.17;;
5684;SDS011;2865;53.114;9.130;2023-04-15T00:53:06;13.07;;;9.37;;
5684;SDS011;2865;53.114;9.130;2023-04-15T00:55:32;9.20;;;7.70;;
5684;SDS011;2865;53.114;9.130;2023-04-15T00:57:58;10.90;;;8.70;;
5684;SDS011;2865;53.114;9.130;2023-04-15T01:00:23;11.07;;;9.10;;
5684;SDS011;2865;53.114;9.130;2023-04-15T01:02:49;13.57;;;8.30;;
5684;SDS011;2865;53.114;9.130;2023-04-15T01:05:14;13.80;;;8.90;;
5684;SDS011;2865;53.114;9.130;2023-04-15T01:07:40;10.23;;;8.70;;
5684;SDS011;2865;53.114;9.130;2023-04-15T01:10:05;12.17;;;8.30;;
5684;SDS011;2865;53.114;9.130;2023-04-15T01:12:32;10.13;;;9.03;;
5684;SDS011;2865;53.114;9.130;2023-04-15T01:14:58;13.43;;;10.20;;
5684;SDS011;2865;53.114;9.130;2023-04-15T01:17:23;13.30;;;9.00;;
5684;SDS011;2865;53.114;9.130;2023-04-15T01:19:48;12.50;;;8.73;;
5684;SDS011;2865;53.114;9.130;2023-04-15T01:22:14;10.63;;;9.17;;
5684;SDS011;2865;53.114;9.130;2023-04-15T01:24:39;10.10;;;8.83;;
5684;SDS011;2865;53.114;9.130;2023-04-15T01:27:04;10.07;;;8.77;;
5684;SDS011;2865;53.114;9.130;2023-04-15T01:29:30;11.17;;;8.60;;
5684;SDS011;2865;53.114;9.130;2023-04-15T01:31:55;11.10;;;9.40;;
5684;SDS011;2865;53.114;9.130;2023-04-15T01:34:21;11.67;;;9.63;;
5684;SDS011;2865;53.114;9.130;2023-04-15T01:36:46;9.77;;;8.80;;
5684;SDS011;2865;53.114;9.130;2023-04-15T01:39:12;11.93;;;9.87;;
5684;SDS011;2865;53.114;9.130;2023-04-15T01:41:37;13.10;;;9.90;;
5684;SDS011;2865;53.114;9.130;2023-04-15T01:44:03;11.90;;;9.20;;
5684;SDS011;2865;53.114;9.130;2023-04-15T01:46:28;13.30;;;9.50;;
5684;SDS011;2865;53.114;9.130;2023-04-15T01:48:54;11.30;;;10.00;;
5684;SDS011;2865;53.114;9.130;2023-04-15T01:51:19;10.80;;;9.10;;
5684;SDS011;2865;53.114;9.130;2023-04-15T01:53:44;10.80;;;9.33;;
5684;SDS011;2865;53.114;9.130;2023-04-15T01:56:10;15.67;;;10.63;;
5684;SDS011;2865;53.114;9.130;2023-04-15T01:58:35;14.00;;;9.87;;
5684;SDS011;2865;53.114;9.130;2023-04-15T02:01:01;13.40;;;9.60;;
5684;SDS011;2865;53.114;9.130;2023-04-15T02:03:27;10.27;;;8.77;;
5684;SDS011;2865;53.114;9.130;2023-04-15T02:05:51;13.73;;;9.80;;
5684;SDS011;2865;53.114;9.130;2023-04-15T02:08:17;12.13;;;8.73;;
5684;SDS011;2865;53.114;9.130;2023-04-15T02:10:42;11.90;;;8.57;;
5684;SDS011;2865;53.114;9.130;2023-04-15T02:13:08;11.73;;;9.90;;
5684;SDS011;2865;53.114;9.130;2023-04-15T02:15:33;11.03;;;9.20;;
5684;SDS011;2865;53.114;9.130;2023-04-15T02:17:58;12.60;;;9.53;;
5684;SDS011;2865;53.114;9.130;2023-04-15T02:20:24;17.37;;;10.47;;
5684;SDS011;2865;53.114;9.130;2023-04-15T02:22:49;13.50;;;10.53;;
5684;SDS011;2865;53.114;9.130;2023-04-15T02:25:15;12.00;;;9.13;;
5684;SDS011;2865;53.114;9.130;2023-04-15T02:27:41;12.50;;;9.60;;
5684;SDS011;2865;53.114;9.130;2023-04-15T02:30:07;11.10;;;8.67;;
5684;SDS011;2865;53.114;9.130;2023-04-15T02:32:32;12.87;;;9.47;;
5684;SDS011;2865;53.114;9.130;2023-04-15T02:35:02;11.43;;;8.63;;
5684;SDS011;2865;53.114;9.130;2023-04-15T02:37:26;13.23;;;9.70;;
5684;SDS011;2865;53.114;9.130;2023-04-15T02:39:52;14.83;;;9.20;;
5684;SDS011;2865;53.114;9.130;2023-04-15T02:42:18;14.83;;;9.80;;
5684;SDS011;2865;53.114;9.130;2023-04-15T02:44:43;11.83;;;8.07;;
5684;SDS011;2865;53.114;9.130;2023-04-15T02:47:09;9.30;;;8.03;;
5684;SDS011;2865;53.114;9.130;2023-04-15T02:49:34;11.30;;;8.77;;
5684;SDS011;2865;53.114;9.130;2023-04-15T02:52:00;11.50;;;8.33;;
5684;SDS011;2865;53.114;9.130;2023-04-15T02:54:25;11.60;;;8.37;;
5684;SDS011;2865;53.114;9.130;2023-04-15T02:56:50;10.47;;;8.80;;
5684;SDS011;2865;53.114;9.130;2023-04-15T02:59:16;10.80;;;8.80;;
5684;SDS011;2865;53.114;9.130;2023-04-15T03:01:41;9.60;;;8.60;;
5684;SDS011;2865;53.114;9.130;2023-04-15T03:04:07;11.47;;;8.53;;
5684;SDS011;2865;53.114;9.130;2023-04-15T03:06:32;8.80;;;7.70;;
5684;SDS011;2865;53.114;9.130;2023-04-15T03:08:57;9.90;;;7.80;;
5684;SDS011;2865;53.114;9.130;2023-04-15T03:11:23;9.60;;;7.83;;
5684;SDS011;2865;53.114;9.130;2023-04-15T03:13:49;8.80;;;8.00;;
5684;SDS011;2865;53.114;9.130;2023-04-15T03:16:14;13.37;;;8.77;;
5684;SDS011;2865;53.114;9.130;2023-04-15T03:18:39;8.67;;;7.77;;
5684;SDS011;2865;53.114;9.130;2023-04-15T03:21:05;10.50;;;8.03;;
5684;SDS011;2865;53.114;9.130;2023-04-15T03:23:30;9.50;;;7.63;;
5684;SDS011;2865;53.114;9.130;2023-04-15T03:25:56;10.97;;;8.40;;
5684;SDS011;2865;53.114;9.130;2023-04-15T03:28:21;9.10;;;7.80;;
5684;SDS011;2865;53.114;9.130;2023-04-15T03:30:47;10.07;;;8.77;;
5684;SDS011;2865;53.114;9.130;2023-04-15T03:33:12;10.40;;;8.60;;
5684;SDS011;2865;53.114;9.130;2023-04-15T03:35:38;11.13;;;8.73;;
5684;SDS011;2865;53.114;9.130;2023-04-15T03:38:03;9.97;;;8.33;;
5684;SDS011;2865;53.114;9.130;2023-04-15T03:40:28;10.37;;;8.83;;
5684;SDS011;2865;53.114;9.130;2023-04-15T03:42:54;11.77;;;9.77;;
5684;SDS011;2865;53.114;9.130;2023-04-15T03:45:19;11.20;;;10.00;;
5684;SDS011;2865;53.114;9.130;2023-04-15T03:47:45;15.23;;;10.77;;
5684;SDS011;2865;53.114;9.130;2023-04-15T03:50:10;12.00;;;10.40;;
5684;SDS011;2865;53.114;9.130;2023-04-15T03:52:35;17.57;;;12.43;;
5684;SDS011;2865;53.114;9.130;2023-04-15T03:55:01;15.93;;;12.97;;
5684;SDS011;2865;53.114;9.130;2023-04-15T03:57:26;13.40;;;11.50;;
5684;SDS011;2865;53.114;9.130;2023-04-15T03:59:52;19.03;;;13.03;;
5684;SDS011;2865;53.114;9.130;2023-04-15T04:02:17;18.63;;;13.60;;
5684;SDS011;2865;53.114;9.130;2023-04-15T04:04:42;14.23;;;12.40;;
5684;SDS011;2865;53.114;9.130;2023-04-15T04:07:08;16.20;;;13.40;;
5684;SDS011;2865;53.114;9.130;2023-04-15T04:09:33;17.77;;;12.93;;
5684;SDS011;2865;53.114;9.130;2023-04-15T04:11:58;16.63;;;14.20;;
5684;SDS011;2865;53.114;9.130;2023-04-15T04:14:24;17.83;;;12.53;;
5684;SDS011;2865;53.114;9.130;2023-04-15T04:16:49;17.70;;;14.00;;
5684;SDS011;2865;53.114;9.130;2023-04-15T04:19:15;15.80;;;12.43;;
5684;SDS011;2865;53.114;9.130;2023-04-15T04:21:40;14.90;;;12.00;;
5684;SDS011;2865;53.114;9.130;2023-04-15T04:24:05;16.60;;;12.07;;
5684;SDS011;2865;53.114;9.130;2023-04-15T04:26:31;15.37;;;11.30;;
5684;SDS011;2865;53.114;9.130;2023-04-15T04:28:56;15.67;;;11.93;;
5684;SDS011;2865;53.114;9.130;2023-04-15T04:31:21;16.03;;;12.03;;
5684;SDS011;2865;53.114;9.130;2023-04-15T04:33:47;15.87;;;13.20;;
5684;SDS011;2865;53.114;9.130;2023-04-15T04:36:12;14.17;;;11.53;;
5684;SDS011;2865;53.114;9.130;2023-04-15T04:38:37;16.33;;;12.10;;
5684;SDS011;2865;53.114;9.130;2023-04-15T04:41:03;14.13;;;11.73;;
5684;SDS011;2865;53.114;9.130;2023-04-15T04:43:28;12.83;;;10.30;;
5684;SDS011;2865;53.114;9.130;2023-04-15T04:45:54;14.07;;;11.30;;
5684;SDS011;2865;53.114;9.130;2023-04-15T04:48:20;13.60;;;11.33;;
5684;SDS011;2865;53.114;9.130;2023-04-15T04:50:45;16.30;;;11.67;;
5684;SDS011;2865;53.114;9.130;2023-04-15T04:53:11;15.30;;;11.17;;
5684;SDS011;2865;53.114;9.130;2023-04-15T04:55:36;14.37;;;11.10;;
5684;SDS011;2865;53.114;9.130;2023-04-15T04:58:01;12.97;;;10.43;;
5684;SDS011;2865;53.114;9.130;2023-04-15T05:00:27;15.83;;;11.23;;
5684;SDS011;2865;53.114;9.130;2023-04-15T05:02:52;13.50;;;10.40;;
5684;SDS011;2865;53.114;9.130;2023-04-15T05:05:18;12.90;;;11.13;;
5684;SDS011;2865;53.114;9.130;2023-04-15T05:07:43;13.47;;;10.90;;
5684;SDS011;2865;53.114;9.130;2023-04-15T05:10:09;12.47;;;9.73;;
5684;SDS011;2865;53.114;9.130;2023-04-15T05:12:35;12.10;;;9.97;;
5684;SDS011;2865;53.114;9.130;2023-04-15T05:15:00;11.53;;;10.33;;
5684;SDS011;2865;53.114;9.130;2023-04-15T05:17:25;13.03;;;10.10;;
5684;SDS011;2865;53.114;9.130;2023-04-15T05:19:51;11.20;;;9.83;;
5684;SDS011;2865;53.114;9.130;2023-04-15T05:22:16;13.03;;;11.23;;
5684;SDS011;2865;53.114;9.130;2023-04-15T05:24:41;15.23;;;11.10;;
5684;SDS011;2865;53.114;9.130;2023-04-15T05:27:07;12.33;;;10.30;;
5684;SDS011;2865;53.114;9.130;2023-04-15T05:29:32;13.77;;;11.63;;
5684;SDS011;2865;53.114;9.130;2023-04-15T05:31:57;12.70;;;10.93;;
5684;SDS011;2865;53.114;9.130;2023-04-15T05:34:23;12.67;;;10.90;;
5684;SDS011;2865;53.114;9.130;2023-04-15T05:36:48;14.80;;;11.23;;
5684;SDS011;2865;53.114;9.130;2023-04-15T05:39:14;14.00;;;10.47;;
5684;SDS011;2865;53.114;9.130;2023-04-15T05:41:39;15.53;;;11.30;;
5684;SDS011;2865;53.114;9.130;2023-04-15T05:44:04;12.13;;;10.47;;
5684;SDS011;2865;53.114;9.130;2023-04-15T05:46:30;13.67;;;11.23;;
5684;SDS011;2865;53.114;9.130;2023-04-15T05:48:55;12.93;;;11.30;;
5684;SDS011;2865;53.114;9.130;2023-04-15T05:51:21;11.43;;;9.53;;
5684;SDS011;2865;53.114;9.130;2023-04-15T05:53:46;11.77;;;9.80;;
5684;SDS011;2865;53.114;9.130;2023-04-15T05:56:11;13.70;;;10.07;;
5684;SDS011;2865;53.114;9.130;2023-04-15T05:58:37;13.00;;;10.07;;
5684;SDS011;2865;53.114;9.130;2023-04-15T06:01:02;13.17;;;10.83;;
5684;SDS011;2865;53.114;9.130;2023-04-15T06:03:28;14.30;;;10.13;;
5684;SDS011;2865;53.114;9.130;2023-04-15T06:05:53;12.20;;;10.70;;
5684;SDS011;2865;53.114;9.130;2023-04-15T06:08:18;12.90;;;9.50;;
5684;SDS011;2865;53.114;9.130;2023-04-15T06:10:44;12.73;;;10.70;;
5684;SDS011;2865;53.114;9.130;2023-04-15T06:13:09;13.27;;;10.03;;
5684;SDS011;2865;53.114;9.130;2023-04-15T06:15:35;11.27;;;9.70;;
5684;SDS011;2865;53.114;9.130;2023-04-15T06:18:00;10.60;;;8.40;;
5684;SDS011;2865;53.114;9.130;2023-04-15T06:20:26;10.20;;;8.90;;
5684;SDS011;2865;53.114;9.130;2023-04-15T06:22:51;10.53;;;8.97;;
5684;SDS011;2865;53.114;9.130;2023-04-15T06:25:17;11.37;;;9.07;;
5684;SDS011;2865;53.114;9.130;2023-04-15T06:27:42;10.50;;;9.00;;
5684;SDS011;2865;53.114;9.130;2023-04-15T06:30:08;9.97;;;8.40;;
5684;SDS011;2865;53.114;9.130;2023-04-15T06:32:34;10.07;;;8.37;;
5684;SDS011;2865;53.114;9.130;2023-04-15T06:34:59;8.77;;;7.87;;
5684;SDS011;2865;53.114;9.130;2023-04-15T06:37:25;10.10;;;8.33;;
5684;SDS011;2865;53.114;9.130;2023-04-15T06:39:50;8.50;;;7.27;;
5684;SDS011;2865;53.114;9.130;2023-04-15T06:42:16;9.83;;;7.63;;
5684;SDS011;2865;53.114;9.130;2023-04-15T06:44:42;7.10;;;6.40;;
5684;SDS011;2865;53.114;9.130;2023-04-15T06:47:08;7.57;;;6.87;;
5684;SDS011;2865;53.114;9.130;2023-04-15T06:49:33;8.23;;;6.90;;
5684;SDS011;2865;53.114;9.130;2023-04-15T06:51:59;7.07;;;6.37;;
5684;SDS011;2865;53.114;9.130;2023-04-15T06:54:24;8.13;;;6.93;;
5684;SDS011;2865;53.114;9.130;2023-04-15T06:56:49;11.60;;;6.57;;
5684;SDS011;2865;53.114;9.130;2023-04-15T06:59:15;6.77;;;6.17;;
5684;SDS011;2865;53.114;9.130;2023-04-15T07:01:40;6.60;;;6.00;;
5684;SDS011;2865;53.114;9.130;2023-04-15T07:04:05;7.10;;;6.40;;
5684;SDS011;2865;53.114;9.130;2023-04-15T07:06:31;7.53;;;6.43;;
5684;SDS011;2865;53.114;9.130;2023-04-15T07:08:56;7.20;;;5.50;;
5684;SDS011;2865;53.114;9.130;2023-04-15T07:11:22;6.90;;;6.27;;
5684;SDS011;2865;53.114;9.130;2023-04-15T07:13:47;6.10;;;5.47;;
5684;SDS011;2865;53.114;9.130;2023-04-15T07:16:12;6.70;;;5.93;;
5684;SDS011;2865;53.114;9.130;2023-04-15T07:18:38;7.77;;;6.20;;
5684;SDS011;2865;53.114;9.130;2023-04-15T07:21:03;6.70;;;6.00;;
5684;SDS011;2865;53.114;9.130;2023-04-15T07:23:29;7.13;;;5.60;;
5684;SDS011;2865;53.114;9.130;2023-04-15T07:25:54;6.50;;;5.93;;
5684;SDS011;2865;53.114;9.130;2023-04-15T07:28:20;7.17;;;6.47;;
5684;SDS011;2865;53.114;9.130;2023-04-15T07:30:45;6.97;;;6.20;;
5684;SDS011;2865;53.114;9.130;2023-04-15T07:33:10;6.93;;;6.23;;
5684;SDS011;2865;53.114;9.130;2023-04-15T07:35:36;7.33;;;6.53;;
5684;SDS011;2865;53.114;9.130;2023-04-15T07:38:01;7.47;;;6.77;;
5684;SDS011;2865;53.114;9.130;2023-04-15T07:40:27;7.00;;;6.37;;
5684;SDS011;2865;53.114;9.130;2023-04-15T07:42:53;7.87;;;6.87;;
5684;SDS011;2865;53.114;9.130;2023-04-15T07:45:18;7.30;;;6.50;;
5684;SDS011;2865;53.114;9.130;2023-04-15T07:47:44;8.63;;;7.10;;
5684;SDS011;2865;53.114;9.130;2023-04-15T07:50:09;8.60;;;7.70;;
5684;SDS011;2865;53.114;9.130;2023-04-15T07:52:35;8.37;;;7.47;;
5684;SDS011;2865;53.114;9.130;2023-04-15T07:55:00;8.40;;;7.57;;
5684;SDS011;2865;53.114;9.130;2023-04-15T07:57:26;7.83;;;7.13;;
5684;SDS011;2865;53.114;9.130;2023-04-15T07:59:51;8.67;;;7.60;;
5684;SDS011;2865;53.114;9.130;2023-04-15T08:02:16;8.00;;;7.20;;
5684;SDS011;2865;53.114;9.130;2023-04-15T08:04:42;7.13;;;6.43;;
5684;SDS011;2865;53.114;9.130;2023-04-15T08:07:07;7.30;;;6.60;;
5684;SDS011;2865;53.114;9.130;2023-04-15T08:09:33;8.73;;;7.87;;
5684;SDS011;2865;53.114;9.130;2023-04-15T08:11:58;9.23;;;7.90;;
5684;SDS011;2865;53.114;9.130;2023-04-15T08:14:23;7.17;;;6.53;;
5684;SDS011;2865;53.114;9.130;2023-04-15T08:16:49;7.77;;;7.07;;
5684;SDS011;2865;53.114;9.130;2023-04-15T08:19:14;9.00;;;8.20;;
5684;SDS011;2865;53.114;9.130;2023-04-15T08:21:39;7.63;;;6.90;;
5684;SDS011;2865;53.114;9.130;2023-04-15T08:24:05;8.03;;;7.23;;
5684;SDS011;2865;53.114;9.130;2023-04-15T08:26:31;7.33;;;6.73;;
5684;SDS011;2865;53.114;9.130;2023-04-15T08:28:56;9.37;;;7.70;;
5684;SDS011;2865;53.114;9.130;2023-04-15T08:31:22;9.27;;;8.27;;
5684;SDS011;2865;53.114;9.130;2023-04-15T08:33:47;8.07;;;7.27;;
5684;SDS011;2865;53.114;9.130;2023-04-15T08:36:12;8.80;;;7.90;;
5684;SDS011;2865;53.114;9.130;2023-04-15T08:38:38;8.50;;;7.60;;
5684;SDS011;2865;53.114;9.130;2023-04-15T08:41:06;8.07;;;7.27;;
5684;SDS011;2865;53.114;9.130;2023-04-15T08:43:34;7.87;;;7.07;;
5684;SDS011;2865;53.114;9.130;2023-04-15T08:45:54;8.87;;;8.00;;
5684;SDS011;2865;53.114;9.130;2023-04-15T08:48:20;8.50;;;7.60;;
5684;SDS011;2865;53.114;9.130;2023-04-15T08:50:45;9.00;;;8.10;;
5684;SDS011;2865;53.114;9.130;2023-04-15T08:53:10;9.23;;;8.33;;
5684;SDS011;2865;53.114;9.130;2023-04-15T08:55:37;8.70;;;7.80;;
5684;SDS011;2865;53.114;9.130;2023-04-15T08:58:01;8.33;;;7.53;;
5684;SDS011;2865;53.114;9.130;2023-04-15T09:00:26;9.13;;;8.13;;
5684;SDS011;2865;53.114;9.130;2023-04-15T09:02:52;9.80;;;8.00;;
5684;SDS011;2865;53.114;9.130;2023-04-15T09:05:17;8.73;;;7.90;;
5684;SDS011;2865;53.114;9.130;2023-04-15T09:07:42;9.33;;;8.33;;
5684;SDS011;2865;53.114;9.130;2023-04-15T09:10:08;10.17;;;7.80;;
5684;SDS011;2865;53.114;9.130;2023-04-15T09:12:34;9.17;;;8.27;;
5684;SDS011;2865;53.114;9.130;2023-04-15T09:15:00;9.53;;;8.13;;
5684;SDS011;2865;53.114;9.130;2023-04-15T09:17:26;7.50;;;6.80;;
5684;SDS011;2865;53.114;9.130;2023-04-15T09:20:06;8.70;;;7.80;;
5684;SDS011;2865;53.114;9.130;2023-04-15T09:22:16;8.90;;;8.03;;
5684;SDS011;2865;53.114;9.130;2023-04-15T09:24:42;10.10;;;9.07;;
5684;SDS011;2865;53.114;9.130;2023-04-15T09:27:07;8.60;;;7.80;;
5684;SDS011;2865;53.114;9.130;2023-04-15T09:29:33;9.67;;;8.63;;
5684;SDS011;2865;53.114;9.130;2023-04-15T09:34:34;12.33;;;9.97;;
5684;SDS011;2865;53.114;9.130;2023-04-15T09:37:00;8.57;;;7.77;;
5684;SDS011;2865;53.114;9.130;2023-04-15T09:39:25;10.93;;;9.67;;
5684;SDS011;2865;53.114;9.130;2023-04-15T09:42:07;10.57;;;9.47;;
5684;SDS011;2865;53.114;9.130;2023-04-15T09:44:32;11.83;;;10.13;;
5684;SDS011;2865;53.114;9.130;2023-04-15T09:46:57;11.30;;;9.73;;
5684;SDS011;2865;53.114;9.130;2023-04-15T09:49:23;11.47;;;9.93;;
5684;SDS011;2865;53.114;9.130;2023-04-15T09:51:48;12.43;;;9.83;;
5684;SDS011;2865;53.114;9.130;2023-04-15T09:54:21;11.97;;;10.67;;
5684;SDS011;2865;53.114;9.130;2023-04-15T09:56:46;12.70;;;10.67;;
5684;SDS011;2865;53.114;9.130;2023-04-15T09:59:12;14.20;;;10.83;;
5684;SDS011;2865;53.114;9.130;2023-04-15T10:01:37;14.90;;;11.90;;
5684;SDS011;2865;53.114;9.130;2023-04-15T10:04:03;15.30;;;12.03;;
5684;SDS011;2865;53.114;9.130;2023-04-15T10:06:28;15.10;;;11.20;;
5684;SDS011;2865;53.114;9.130;2023-04-15T10:08:54;16.20;;;12.60;;
5684;SDS011;2865;53.114;9.130;2023-04-15T10:11:19;16.07;;;12.60;;
5684;SDS011;2865;53.114;9.130;2023-04-15T10:13:45;15.23;;;11.20;;
5684;SDS011;2865;53.114;9.130;2023-04-15T10:16:11;19.37;;;12.40;;
5684;SDS011;2865;53.114;9.130;2023-04-15T10:18:37;17.40;;;12.80;;
5684;SDS011;2865;53.114;9.130;2023-04-15T10:21:01;19.10;;;13.10;;
5684;SDS011;2865;53.114;9.130;2023-04-15T10:23:26;20.50;;;12.80;;
5684;SDS011;2865;53.114;9.130;2023-04-15T10:25:52;14.97;;;11.90;;
5684;SDS011;2865;53.114;9.130;2023-04-15T10:28:19;19.30;;;13.93;;
5684;SDS011;2865;53.114;9.130;2023-04-15T10:30:44;17.00;;;12.40;;
5684;SDS011;2865;53.114;9.130;2023-04-15T10:33:09;18.30;;;13.47;;
5684;SDS011;2865;53.114;9.130;2023-04-15T10:35:35;17.30;;;14.37;;
5684;SDS011;2865;53.114;9.130;2023-04-15T10:38:00;18.20;;;13.30;;
5684;SDS011;2865;53.114;9.130;2023-04-15T10:40:27;23.07;;;13.90;;
5684;SDS011;2865;53.114;9.130;2023-04-15T10:42:52;17.60;;;13.00;;
5684;SDS011;2865;53.114;9.130;2023-04-15T10:45:19;18.63;;;14.47;;
5684;SDS011;2865;53.114;9.130;2023-04-15T10:47:45;24.43;;;14.10;;
5684;SDS011;2865;53.114;9.130;2023-04-15T10:50:11;21.27;;;14.27;;
5684;SDS011;2865;53.114;9.130;2023-04-15T10:52:38;19.57;;;14.80;;
5684;SDS011;2865;53.114;9.130;2023-04-15T10:55:04;24.90;;;15.63;;
5684;SDS011;2865;53.114;9.130;2023-04-15T10:57:33;25.53;;;13.80;;
5684;SDS011;2865;53.114;9.130;2023-04-15T10:59:59;27.70;;;16.30;;
5684;SDS011;2865;53.114;9.130;2023-04-15T11:05:03;24.47;;;17.03;;
5684;SDS011;2865;53.114;9.130;2023-04-15T11:07:33;27.07;;;16.40;;
5684;SDS011;2865;53.114;9.130;2023-04-15T11:10:00;26.70;;;18.30;;
5684;SDS011;2865;53.114;9.130;2023-04-15T11:12:32;30.10;;;18.50;;
5684;SDS011;2865;53.114;9.130;2023-04-15T11:14:57;35.17;;;19.27;;
5684;SDS011;2865;53.114;9.130;2023-04-15T11:17:26;36.53;;;19.67;;
5684;SDS011;2865;53.114;9.130;2023-04-15T11:19:51;34.27;;;19.33;;
5684;SDS011;2865;53.114;9.130;2023-04-15T11:22:16;42.27;;;21.43;;
5684;SDS011;2865;53.114;9.130;2023-04-15T11:24:46;34.57;;;18.80;;
5684;SDS011;2865;53.114;9.130;2023-04-15T11:29:44;38.27;;;20.43;;
5684;SDS011;2865;53.114;9.130;2023-04-15T11:32:09;36.10;;;21.37;;
5684;SDS011;2865;53.114;9.130;2023-04-15T11:34:35;46.63;;;23.73;;
5684;SDS011;2865;53.114;9.130;2023-04-15T11:37:03;39.83;;;22.77;;
5684;SDS011;2865;53.114;9.130;2023-04-15T11:39:27;35.50;;;22.13;;
5684;SDS011;2865;53.114;9.130;2023-04-15T11:41:53;32.20;;;21.17;;
5684;SDS011;2865;53.114;9.130;2023-04-15T11:44:18;36.80;;;22.60;;
5684;SDS011;2865;53.114;9.130;2023-04-15T11:46:44;38.73;;;23.80;;
5684;SDS011;2865;53.114;9.130;2023-04-15T11:49:09;41.50;;;24.03;;
5684;SDS011;2865;53.114;9.130;2023-04-15T11:51:34;40.97;;;24.60;;
5684;SDS011;2865;53.114;9.130;2023-04-15T11:54:00;38.77;;;23.33;;
5684;SDS011;2865;53.114;9.130;2023-04-15T11:56:25;48.90;;;28.63;;
5684;SDS011;2865;53.114;9.130;2023-04-15T11:58:51;45.40;;;28.57;;
5684;SDS011;2865;53.114;9.130;2023-04-15T12:01:16;46.43;;;26.20;;
5684;SDS011;2865;53.114;9.130;2023-04-15T12:03:44;46.23;;;26.07;;
5684;SDS011;2865;53.114;9.130;2023-04-15T12:06:10;52.73;;;28.87;;
5684;SDS011;2865;53.114;9.130;2023-04-15T12:11:16;51.20;;;27.63;;
5684;SDS011;2865;53.114;9.130;2023-04-15T12:13:43;47.27;;;30.27;;
5684;SDS011;2865;53.114;9.130;2023-04-15T12:16:08;43.00;;;27.27;;
5684;SDS011;2865;53.114;9.130;2023-04-15T12:18:36;48.30;;;27.33;;
5684;SDS011;2865;53.114;9.130;2023-04-15T12:21:03;44.03;;;27.60;;
5684;SDS011;2865;53.114;9.130;2023-04-15T12:23:25;43.70;;;27.90;;
5684;SDS011;2865;53.114;9.130;2023-04-15T12:25:50;42.53;;;26.67;;
5684;SDS011;2865;53.114;9.130;2023-04-15T12:28:16;48.27;;;27.40;;
5684;SDS011;2865;53.114;9.130;2023-04-15T12:30:47;43.57;;;27.23;;
5684;SDS011;2865;53.114;9.130;2023-04-15T12:33:12;42.60;;;25.77;;
5684;SDS011;2865;53.114;9.130;2023-04-15T12:35:38;44.27;;;26.80;;
5684;SDS011;2865;53.114;9.130;2023-04-15T12:38:03;38.37;;;24.77;;
5684;SDS011;2865;53.114;9.130;2023-04-15T12:40:28;40.97;;;25.70;;
5684;SDS011;2865;53.114;9.130;2023-04-15T12:42:54;41.10;;;27.53;;
5684;SDS011;2865;53.114;9.130;2023-04-15T12:45:19;38.53;;;26.23;;
5684;SDS011;2865;53.114;9.130;2023-04-15T12:47:44;40.13;;;26.87;;
5684;SDS011;2865;53.114;9.130;2023-04-15T12:50:10;41.43;;;25.27;;
5684;SDS011;2865;53.114;9.130;2023-04-15T12:52:35;43.43;;;25.90;;
5684;SDS011;2865;53.114;9.130;2023-04-15T12:55:01;36.33;;;24.67;;
5684;SDS011;2865;53.114;9.130;2023-04-15T12:57:26;34.30;;;22.70;;
5684;SDS011;2865;53.114;9.130;2023-04-15T12:59:51;35.40;;;24.13;;
5684;SDS011;2865;53.114;9.130;2023-04-15T13:02:17;36.30;;;24.30;;
5684;SDS011;2865;53.114;9.130;2023-04-15T13:04:42;43.07;;;28.97;;
5684;SDS011;2865;53.114;9.130;2023-04-15T13:07:08;31.57;;;23.77;;
5684;SDS011;2865;53.114;9.130;2023-04-15T13:09:33;37.80;;;24.73;;
5684;SDS011;2865;53.114;9.130;2023-04-15T13:11:58;34.07;;;24.17;;
5684;SDS011;2865;53.114;9.130;2023-04-15T13:14:24;35.33;;;22.87;;
5684;SDS011;2865;53.114;9.130;2023-04-15T13:16:50;34.43;;;23.67;;
5684;SDS011;2865;53.114;9.130;2023-04-15T13:19:15;30.80;;;21.80;;
5684;SDS011;2865;53.114;9.130;2023-04-15T13:21:40;30.73;;;22.03;;
5684;SDS011;2865;53.114;9.130;2023-04-15T13:24:06;29.43;;;21.53;;
5684;SDS011;2865;53.114;9.130;2023-04-15T13:26:31;25.87;;;20.00;;
5684;SDS011;2865;53.114;9.130;2023-04-15T13:28:57;31.40;;;21.93;;
5684;SDS011;2865;53.114;9.130;2023-04-15T13:31:22;32.70;;;21.67;;
5684;SDS011;2865;53.114;9.130;2023-04-15T13:33:47;28.77;;;20.40;;
5684;SDS011;2865;53.114;9.130;2023-04-15T13:36:13;31.00;;;22.50;;
5684;SDS011;2865;53.114;9.130;2023-04-15T13:38:38;25.90;;;19.30;;
5684;SDS011;2865;53.114;9.130;2023-04-15T13:41:05;29.13;;;21.93;;
5684;SDS011;2865;53.114;9.130;2023-04-15T13:43:32;30.47;;;19.97;;
5684;SDS011;2865;53.114;9.130;2023-04-15T13:45:58;24.13;;;18.13;;
5684;SDS011;2865;53.114;9.130;2023-04-15T13:48:23;27.63;;;20.80;;
5684;SDS011;2865;53.114;9.130;2023-04-15T13:50:49;31.77;;;21.80;;
5684;SDS011;2865;53.114;9.130;2023-04-15T13:53:15;26.67;;;18.97;;
5684;SDS011;2865;53.114;9.130;2023-04-15T13:55:40;25.43;;;19.60;;
5684;SDS011;2865;53.114;9.130;2023-04-15T13:58:06;27.37;;;19.60;;
5684;SDS011;2865;53.114;9.130;2023-04-15T14:00:31;25.77;;;18.80;;
5684;SDS011;2865;53.114;9.130;2023-04-15T14:02:56;31.00;;;20.13;;
5684;SDS011;2865;53.114;9.130;2023-04-15T14:05:22;25.90;;;20.73;;
5684;SDS011;2865;53.114;9.130;2023-04-15T14:07:47;29.30;;;21.23;;
5684;SDS011;2865;53.114;9.130;2023-04-15T14:10:12;31.30;;;20.20;;
5684;SDS011;2865;53.114;9.130;2023-04-15T14:12:38;26.07;;;20.17;;
5684;SDS011;2865;53.114;9.130;2023-04-15T14:15:03;25.40;;;19.93;;
5684;SDS011;2865;53.114;9.130;2023-04-15T14:17:30;23.13;;;17.73;;
5684;SDS011;2865;53.114;9.130;2023-04-15T14:19:55;29.13;;;19.60;;
5684;SDS011;2865;53.114;9.130;2023-04-15T14:22:21;26.30;;;20.00;;
5684;SDS011;2865;53.114;9.130;2023-04-15T14:24:46;32.20;;;19.67;;
5684;SDS011;2865;53.114;9.130;2023-04-15T14:27:11;25.13;;;18.43;;
5684;SDS011;2865;53.114;9.130;2023-04-15T14:29:37;22.03;;;17.87;;
5684;SDS011;2865;53.114;9.130;2023-04-15T14:32:02;26.03;;;19.20;;
5684;SDS011;2865;53.114;9.130;2023-04-15T14:34:27;26.97;;;17.87;;
5684;SDS011;2865;53.114;9.130;2023-04-15T14:36:53;27.73;;;18.40;;
5684;SDS011;2865;53.114;9.130;2023-04-15T14:39:18;23.30;;;16.53;;
5684;SDS011;2865;53.114;9.130;2023-04-15T14:41:44;21.73;;;15.77;;
5684;SDS011;2865;53.114;9.130;2023-04-15T14:44:09;23.73;;;17.60;;
5684;SDS011;2865;53.114;9.130;2023-04-15T14:46:35;19.90;;;16.30;;
5684;SDS011;2865;53.114;9.130;2023-04-15T14:49:00;25.60;;;15.73;;
5684;SDS011;2865;53.114;9.130;2023-04-15T14:51:26;23.30;;;17.80;;
5684;SDS011;2865;53.114;9.130;2023-04-15T14:53:52;22.43;;;17.20;;
5684;SDS011;2865;53.114;9.130;2023-04-15T14:56:17;15.73;;;12.03;;
5684;SDS011;2865;53.114;9.130;2023-04-15T14:58:42;11.13;;;9.33;;
5684;SDS011;2865;53.114;9.130;2023-04-15T15:01:08;9.33;;;8.33;;